Time;durP1;ratioP1;P1;durP2;ratioP2;P2;SDS_P1;SDS_P2;PMS_P1;PMS_P2;Temp;Humidity;BMP_temperature;BMP_pressure;BME280_temperature;BME280_humidity;BME280_pressure;Samples;Min_cycle;Max_cycle;Signal;HPM_P1;HPM_P2
2023/05/16 00:02:02;;;;;;;7.03;2.08;;;;;;;;;;4995227;28;20034;-68
2023/05/16 00:04:28;;;;;;;5.50;1.90;;;;;;;;;;4993476;28;20510;-65
2023/05/16 00:06:54;;;;;;;6.07;2.00;;;;;;;;;;4991712;28;20041;-66
2023/05/16 00:09:21;;;;;;;6.13;1.90;;;;;;;;;;5003818;28;20494;-65
2023/05/16 00:11:47;;;;;;;6.38;2.13;;;;;;;;;;5005661;28;20026;-65
2023/05/16 00:14:14;;;;;;;6.32;2.15;;;;;;;;;;4992645;28;20471;-67
2023/05/16 00:16:40;;;;;;;9.02;2.03;;;;;;;;;;4993305;28;20041;-65
2023/05/16 00:19:07;;;;;;;4.18;1.75;;;;;;;;;;4992836;28;20037;-66
2023/05/16 00:21:33;;;;;;;5.93;1.98;;;;;;;;;;4992101;28;20034;-66
2023/05/16 00:23:59;;;;;;;4.95;2.38;;;;;;;;;;4991287;28;20053;-66
2023/05/16 00:26:25;;;;;;;4.45;2.25;;;;;;;;;;4992326;28;20034;-66
2023/05/16 00:28:51;;;;;;;7.28;2.22;;;;;;;;;;4992784;28;20895;-64
2023/05/16 00:31:18;;;;;;;9.15;2.05;;;;;;;;;;4992760;28;21079;-65
2023/05/16 00:33:44;;;;;;;8.23;2.67;;;;;;;;;;4993028;28;20026;-65
2023/05/16 00:36:10;;;;;;;6.57;1.95;;;;;;;;;;4992972;28;20030;-65
2023/05/16 00:38:36;;;;;;;6.72;1.80;;;;;;;;;;4993795;28;20053;-66
2023/05/16 00:41:03;;;;;;;9.20;2.03;;;;;;;;;;4990846;28;20041;-65
2023/05/16 00:43:29;;;;;;;6.03;2.40;;;;;;;;;;4992412;28;20038;-67
2023/05/16 00:45:56;;;;;;;6.85;2.20;;;;;;;;;;4992547;28;20034;-66
2023/05/16 00:48:22;;;;;;;6.40;2.08;;;;;;;;;;4991849;28;20048;-66
2023/05/16 00:50:49;;;;;;;6.45;2.20;;;;;;;;;;4992312;28;20025;-66
2023/05/16 00:53:15;;;;;;;7.03;2.33;;;;;;;;;;4994087;28;20041;-65
2023/05/16 00:55:42;;;;;;;6.05;1.98;;;;;;;;;;4992086;28;20033;-64
2023/05/16 00:58:10;;;;;;;6.30;2.38;;;;;;;;;;4991628;28;20026;-65
2023/05/16 01:00:36;;;;;;;5.60;2.53;;;;;;;;;;4994944;28;20061;-66
2023/05/16 01:03:04;;;;;;;6.88;3.08;;;;;;;;;;4992402;28;20567;-66
2023/05/16 01:05:30;;;;;;;3.28;2.00;;;;;;;;;;4998079;28;20030;-66
2023/05/16 01:07:56;;;;;;;7.82;2.35;;;;;;;;;;4999489;28;20083;-65
2023/05/16 01:10:23;;;;;;;5.78;2.08;;;;;;;;;;4992621;28;20034;-66
2023/05/16 01:13:21;;;;;;;5.25;1.92;;;;;;;;;;4993430;28;20095;-66
2023/05/16 01:15:53;;;;;;;8.57;2.47;;;;;;;;;;4977848;28;20089;-64
2023/05/16 01:18:30;;;;;;;6.13;2.20;;;;;;;;;;4991373;28;20088;-66
2023/05/16 01:21:02;;;;;;;8.02;2.85;;;;;;;;;;4993454;28;20025;-65
2023/05/16 01:23:28;;;;;;;;;;;;;;;;;;4991371;28;20086;-66
2023/05/16 01:26:05;;;;;;;7.35;2.40;;;;;;;;;;4991309;28;20000;-66
2023/05/16 01:28:31;;;;;;;4.68;2.25;;;;;;;;;;4991425;28;20057;-65
2023/05/16 01:30:57;;;;;;;5.15;2.15;;;;;;;;;;4991266;28;20033;-65
2023/05/16 01:33:23;;;;;;;4.50;2.05;;;;;;;;;;4992393;28;20477;-65
2023/05/16 01:35:55;;;;;;;8.82;2.08;;;;;;;;;;4994320;28;20045;-66
2023/05/16 01:38:30;;;;;;;4.57;2.30;;;;;;;;;;5005489;28;20018;-65
2023/05/16 01:41:06;;;;;;;4.70;1.98;;;;;;;;;;5007543;28;20036;-66
2023/05/16 01:43:39;;;;;;;4.28;1.92;;;;;;;;;;5011814;28;20510;-65
2023/05/16 01:46:13;;;;;;;10.20;2.20;;;;;;;;;;5001549;28;20114;-66
2023/05/16 01:48:44;;;;;;;5.10;2.03;;;;;;;;;;4992214;28;20027;-66
2023/05/16 01:51:10;;;;;;;8.63;2.13;;;;;;;;;;4992221;28;20022;-66
2023/05/16 01:53:37;;;;;;;4.57;2.10;;;;;;;;;;4991914;28;20093;-66
2023/05/16 01:56:05;;;;;;;10.75;2.40;;;;;;;;;;4993463;28;20101;-66
2023/05/16 01:58:32;;;;;;;8.30;2.17;;;;;;;;;;5006450;28;20113;-65
2023/05/16 02:01:06;;;;;;;4.75;2.13;;;;;;;;;;5011630;28;20021;-66
2023/05/16 02:03:32;;;;;;;8.32;2.33;;;;;;;;;;5011259;28;20080;-66
2023/05/16 02:05:58;;;;;;;6.60;2.80;;;;;;;;;;5011510;28;20053;-66
2023/05/16 02:08:27;;;;;;;6.20;2.17;;;;;;;;;;5011498;28;20061;-65
2023/05/16 02:10:54;;;;;;;7.03;2.58;;;;;;;;;;5011538;28;20084;-65
2023/05/16 02:13:20;;;;;;;8.43;1.88;;;;;;;;;;5011676;28;20073;-64
2023/05/16 02:15:46;;;;;;;4.95;2.30;;;;;;;;;;4997734;28;20038;-65
2023/05/16 02:18:12;;;;;;;7.47;2.40;;;;;;;;;;4990429;28;20042;-64
2023/05/16 02:20:38;;;;;;;3.05;2.15;;;;;;;;;;4993443;28;20057;-64
2023/05/16 02:23:04;;;;;;;6.47;2.08;;;;;;;;;;4997150;28;20022;-64
2023/05/16 02:25:31;;;;;;;4.97;2.08;;;;;;;;;;4992404;28;20092;-67
2023/05/16 02:27:57;;;;;;;6.90;2.05;;;;;;;;;;4989856;28;20025;-66
2023/05/16 02:30:23;;;;;;;11.98;2.55;;;;;;;;;;4989627;28;20046;-66
2023/05/16 02:32:49;;;;;;;7.80;2.40;;;;;;;;;;4990019;28;20100;-65
2023/05/16 02:35:15;;;;;;;7.05;2.58;;;;;;;;;;4990575;28;20100;-65
2023/05/16 02:37:41;;;;;;;3.20;2.17;;;;;;;;;;4990435;28;20038;-67
2023/05/16 02:40:08;;;;;;;4.88;2.13;;;;;;;;;;4991314;28;20033;-65
2023/05/16 02:42:34;;;;;;;3.15;2.05;;;;;;;;;;4994623;28;20083;-66
2023/05/16 02:45:00;;;;;;;5.00;2.40;;;;;;;;;;4990457;28;20549;-66
2023/05/16 02:47:26;;;;;;;8.52;2.30;;;;;;;;;;4991018;28;21931;-65
2023/05/16 02:49:52;;;;;;;8.80;1.90;;;;;;;;;;4990265;28;20636;-66
2023/05/16 02:52:18;;;;;;;3.40;2.20;;;;;;;;;;4990107;28;20478;-65
2023/05/16 02:54:45;;;;;;;7.43;2.53;;;;;;;;;;4989907;28;20488;-65
2023/05/16 02:57:11;;;;;;;8.75;2.42;;;;;;;;;;4989685;28;21657;-64
2023/05/16 02:59:37;;;;;;;7.32;2.50;;;;;;;;;;4990024;28;20030;-65
2023/05/16 03:02:03;;;;;;;4.97;2.00;;;;;;;;;;4991348;28;20030;-66
2023/05/16 03:04:29;;;;;;;11.43;2.58;;;;;;;;;;4990664;28;20175;-66
2023/05/16 03:06:56;;;;;;;10.40;2.55;;;;;;;;;;4997664;28;20034;-65
2023/05/16 03:09:22;;;;;;;4.38;2.28;;;;;;;;;;4990136;28;20123;-65
2023/05/16 03:11:48;;;;;;;9.10;2.78;;;;;;;;;;4989226;28;20042;-65
2023/05/16 03:14:14;;;;;;;5.28;2.42;;;;;;;;;;4985470;28;20037;-64
2023/05/16 03:16:42;;;;;;;7.50;3.13;;;;;;;;;;4989355;28;20037;-65
2023/05/16 03:19:08;;;;;;;9.48;2.58;;;;;;;;;;4991679;28;20549;-65
2023/05/16 03:21:34;;;;;;;6.32;2.65;;;;;;;;;;4992930;28;20044;-64
2023/05/16 03:24:02;;;;;;;7.65;2.53;;;;;;;;;;4996956;28;21851;-65
2023/05/16 03:26:28;;;;;;;6.22;2.67;;;;;;;;;;4993554;28;20061;-66
2023/05/16 03:28:55;;;;;;;7.32;2.90;;;;;;;;;;5002158;28;20487;-65
2023/05/16 03:31:21;;;;;;;7.47;3.00;;;;;;;;;;5018443;28;20676;-65
2023/05/16 03:33:47;;;;;;;5.82;2.70;;;;;;;;;;4995322;28;20088;-66
2023/05/16 03:36:13;;;;;;;6.55;3.10;;;;;;;;;;5001485;28;20071;-66
2023/05/16 03:38:39;;;;;;;5.95;2.63;;;;;;;;;;5010425;28;20048;-67
2023/05/16 03:41:05;;;;;;;6.40;3.45;;;;;;;;;;5013945;28;20056;-67
2023/05/16 03:43:31;;;;;;;10.13;2.92;;;;;;;;;;5014245;28;20057;-66
2023/05/16 03:45:58;;;;;;;9.23;3.17;;;;;;;;;;5029130;28;20390;-66
2023/05/16 03:48:24;;;;;;;10.10;2.70;;;;;;;;;;5014247;28;20053;-66
2023/05/16 03:50:50;;;;;;;8.27;2.55;;;;;;;;;;5013732;28;20474;-66
2023/05/16 03:53:16;;;;;;;7.15;3.00;;;;;;;;;;5013984;28;20406;-65
2023/05/16 03:55:42;;;;;;;5.28;2.15;;;;;;;;;;5006523;28;20471;-66
2023/05/16 03:58:08;;;;;;;6.22;2.53;;;;;;;;;;5013710;28;20030;-66
2023/05/16 04:00:35;;;;;;;6.15;2.58;;;;;;;;;;5013819;28;20025;-65
2023/05/16 04:03:01;;;;;;;4.93;2.58;;;;;;;;;;5013616;28;20026;-65
2023/05/16 04:05:28;;;;;;;7.75;2.53;;;;;;;;;;5013622;28;20037;-66
2023/05/16 04:07:54;;;;;;;10.27;2.95;;;;;;;;;;5009479;28;20034;-66
2023/05/16 04:10:20;;;;;;;7.38;2.65;;;;;;;;;;4992442;28;20030;-65
2023/05/16 04:12:46;;;;;;;7.47;3.28;;;;;;;;;;5000138;28;20037;-65
2023/05/16 04:15:12;;;;;;;8.38;3.90;;;;;;;;;;4993546;28;20435;-66
2023/05/16 04:17:39;;;;;;;6.82;3.28;;;;;;;;;;4992527;28;20036;-65
2023/05/16 04:20:05;;;;;;;10.15;4.45;;;;;;;;;;4991774;28;20120;-64
2023/05/16 04:22:31;;;;;;;7.53;3.83;;;;;;;;;;4992880;28;20037;-64
2023/05/16 04:24:58;;;;;;;6.95;4.00;;;;;;;;;;4992726;28;20042;-64
2023/05/16 04:27:25;;;;;;;9.02;3.35;;;;;;;;;;4991762;28;21027;-65
2023/05/16 04:29:51;;;;;;;8.50;3.40;;;;;;;;;;4993595;28;20045;-65
2023/05/16 04:32:18;;;;;;;14.50;3.92;;;;;;;;;;4992046;28;20426;-65
2023/05/16 04:34:45;;;;;;;7.03;3.72;;;;;;;;;;4992121;28;20037;-66
2023/05/16 04:37:11;;;;;;;9.32;3.70;;;;;;;;;;4991300;28;20029;-66
2023/05/16 04:39:38;;;;;;;6.22;3.30;;;;;;;;;;4993557;28;20069;-65
2023/05/16 04:42:04;;;;;;;7.00;3.35;;;;;;;;;;4991853;28;20065;-66
2023/05/16 04:44:30;;;;;;;6.35;3.17;;;;;;;;;;4992086;28;21760;-66
2023/05/16 04:46:56;;;;;;;6.95;3.40;;;;;;;;;;4997253;28;20030;-65
2023/05/16 04:49:23;;;;;;;6.65;3.47;;;;;;;;;;4992366;28;20045;-65
2023/05/16 04:51:49;;;;;;;13.63;4.38;;;;;;;;;;4992354;28;20025;-66
2023/05/16 04:54:15;;;;;;;10.32;3.95;;;;;;;;;;4995074;28;20081;-67
2023/05/16 04:56:41;;;;;;;6.80;3.30;;;;;;;;;;4994744;28;20089;-66
2023/05/16 04:59:07;;;;;;;7.00;3.45;;;;;;;;;;4992003;28;20113;-65
2023/05/16 05:01:33;;;;;;;7.30;3.30;;;;;;;;;;4992582;28;20030;-64
2023/05/16 05:04:02;;;;;;;8.10;3.13;;;;;;;;;;4990909;28;20030;-67
2023/05/16 05:06:28;;;;;;;10.45;3.67;;;;;;;;;;4997657;28;20037;-65
2023/05/16 05:08:54;;;;;;;8.38;3.25;;;;;;;;;;4997535;28;20026;-67
2023/05/16 05:11:20;;;;;;;6.55;2.90;;;;;;;;;;4991624;28;20034;-65
2023/05/16 05:13:46;;;;;;;11.30;3.33;;;;;;;;;;4992207;28;20533;-66
2023/05/16 05:16:12;;;;;;;4.70;3.08;;;;;;;;;;4993755;28;20038;-64
2023/05/16 05:18:38;;;;;;;9.38;3.75;;;;;;;;;;4990599;28;20041;-65
2023/05/16 05:21:04;;;;;;;6.75;2.97;;;;;;;;;;4991742;28;20033;-65
2023/05/16 05:23:31;;;;;;;6.28;3.58;;;;;;;;;;4990768;28;20530;-65
2023/05/16 05:25:57;;;;;;;6.25;3.60;;;;;;;;;;4992748;28;20070;-66
2023/05/16 05:28:23;;;;;;;5.43;3.20;;;;;;;;;;4994017;28;20081;-65
2023/05/16 05:30:49;;;;;;;6.65;4.05;;;;;;;;;;4994383;28;20057;-65
2023/05/16 05:33:19;;;;;;;6.97;3.30;;;;;;;;;;4991990;28;20056;-65
2023/05/16 05:35:45;;;;;;;9.23;3.78;;;;;;;;;;4991261;28;20048;-66
2023/05/16 05:38:11;;;;;;;11.70;4.32;;;;;;;;;;4992829;28;20033;-65
2023/05/16 05:40:37;;;;;;;7.53;3.53;;;;;;;;;;5012474;28;20080;-66
2023/05/16 05:43:03;;;;;;;7.95;3.90;;;;;;;;;;4990983;28;20439;-65
2023/05/16 05:45:29;;;;;;;10.90;4.20;;;;;;;;;;5006626;28;20502;-65
2023/05/16 05:47:55;;;;;;;10.35;4.57;;;;;;;;;;4991854;28;20030;-66
2023/05/16 05:50:21;;;;;;;11.45;4.13;;;;;;;;;;5001827;28;20378;-65
2023/05/16 05:52:48;;;;;;;12.23;4.50;;;;;;;;;;4991975;28;20037;-67
2023/05/16 05:55:14;;;;;;;9.43;3.35;;;;;;;;;;4993542;28;20060;-66
2023/05/16 05:57:40;;;;;;;10.13;4.03;;;;;;;;;;4991445;28;20029;-65
2023/05/16 06:00:06;;;;;;;6.38;3.17;;;;;;;;;;4991356;28;20028;-66
2023/05/16 06:02:32;;;;;;;8.50;3.60;;;;;;;;;;4992750;28;20060;-66
2023/05/16 06:04:58;;;;;;;9.18;3.60;;;;;;;;;;4993730;28;20078;-64
2023/05/16 06:07:24;;;;;;;8.02;3.35;;;;;;;;;;4994838;28;20033;-65
2023/05/16 06:09:51;;;;;;;7.90;3.35;;;;;;;;;;4993819;28;20450;-65
2023/05/16 06:12:17;;;;;;;11.55;3.20;;;;;;;;;;4993419;28;20482;-66
2023/05/16 06:14:43;;;;;;;6.53;3.50;;;;;;;;;;4989765;28;20419;-64
2023/05/16 06:17:09;;;;;;;10.38;3.40;;;;;;;;;;4991246;28;20627;-65
2023/05/16 06:19:35;;;;;;;9.23;3.33;;;;;;;;;;4992433;28;20037;-65
2023/05/16 06:22:01;;;;;;;8.77;3.45;;;;;;;;;;4990432;28;20033;-65
2023/05/16 06:24:28;;;;;;;9.48;2.85;;;;;;;;;;5010042;28;20052;-64
2023/05/16 06:26:56;;;;;;;8.88;3.13;;;;;;;;;;4993643;28;20046;-65
2023/05/16 06:29:22;;;;;;;11.52;3.78;;;;;;;;;;4993326;28;20525;-66
2023/05/16 06:31:49;;;;;;;9.75;3.47;;;;;;;;;;4991824;28;20034;-66
2023/05/16 06:34:15;;;;;;;11.07;3.17;;;;;;;;;;4991483;28;20025;-65
2023/05/16 06:36:41;;;;;;;10.02;3.63;;;;;;;;;;4991447;28;20741;-65
2023/05/16 06:39:07;;;;;;;10.05;3.63;;;;;;;;;;4991806;28;20041;-65
2023/05/16 06:41:33;;;;;;;6.97;3.10;;;;;;;;;;4989343;28;20136;-66
2023/05/16 06:43:59;;;;;;;8.65;3.63;;;;;;;;;;4992718;28;20053;-66
2023/05/16 06:46:26;;;;;;;9.35;2.72;;;;;;;;;;4990009;28;20034;-66
2023/05/16 06:48:52;;;;;;;8.88;2.80;;;;;;;;;;4989123;28;20034;-66
2023/05/16 06:51:18;;;;;;;9.43;2.60;;;;;;;;;;4991760;28;20993;-65
2023/05/16 06:53:44;;;;;;;6.47;2.60;;;;;;;;;;4990256;28;20029;-66
2023/05/16 06:56:10;;;;;;;6.72;2.75;;;;;;;;;;4990068;28;20406;-65
2023/05/16 06:58:36;;;;;;;7.15;2.92;;;;;;;;;;4992780;28;20038;-66
2023/05/16 07:01:02;;;;;;;8.02;2.50;;;;;;;;;;4998231;28;20134;-65
2023/05/16 07:03:28;;;;;;;7.35;2.50;;;;;;;;;;4997983;28;20022;-64
2023/05/16 07:05:56;;;;;;;4.53;2.50;;;;;;;;;;4994026;28;20718;-65
2023/05/16 07:08:22;;;;;;;6.75;2.35;;;;;;;;;;4996429;28;20088;-64
2023/05/16 07:10:48;;;;;;;5.95;2.38;;;;;;;;;;4995357;28;20425;-65
2023/05/16 07:13:14;;;;;;;6.20;2.60;;;;;;;;;;4996216;28;20030;-64
2023/05/16 07:15:40;;;;;;;6.80;2.95;;;;;;;;;;5000072;28;20788;-64
2023/05/16 07:18:06;;;;;;;7.28;2.30;;;;;;;;;;4994224;28;20659;-64
2023/05/16 07:20:32;;;;;;;8.70;2.35;;;;;;;;;;4994292;28;20730;-64
2023/05/16 07:22:59;;;;;;;9.90;2.20;;;;;;;;;;5004678;28;20026;-63
2023/05/16 07:25:26;;;;;;;7.97;2.25;;;;;;;;;;5029200;28;20419;-65
2023/05/16 07:27:52;;;;;;;5.43;2.33;;;;;;;;;;5014419;28;20034;-65
2023/05/16 07:30:18;;;;;;;11.32;2.67;;;;;;;;;;5014531;28;20038;-63
2023/05/16 07:32:44;;;;;;;9.00;2.28;;;;;;;;;;5014617;28;20022;-64
2023/05/16 07:35:10;;;;;;;7.60;2.63;;;;;;;;;;5013208;28;20044;-65
2023/05/16 07:37:36;;;;;;;6.43;2.20;;;;;;;;;;5014188;28;20489;-64
2023/05/16 07:40:02;;;;;;;6.18;2.10;;;;;;;;;;5014187;28;20080;-63
2023/05/16 07:42:28;;;;;;;6.82;1.98;;;;;;;;;;5014152;28;20438;-64
2023/05/16 07:44:55;;;;;;;8.20;1.98;;;;;;;;;;5014164;28;20034;-64
2023/05/16 07:47:21;;;;;;;9.23;2.90;;;;;;;;;;5013967;28;20026;-64
2023/05/16 07:49:48;;;;;;;10.02;2.30;;;;;;;;;;5014141;28;20030;-64
2023/05/16 07:52:14;;;;;;;9.52;2.15;;;;;;;;;;5011171;28;20025;-63
2023/05/16 07:54:40;;;;;;;5.75;1.67;;;;;;;;;;4994021;28;20035;-63
2023/05/16 07:57:06;;;;;;;7.10;2.00;;;;;;;;;;4994237;28;20030;-63
2023/05/16 07:59:32;;;;;;;7.75;2.03;;;;;;;;;;4994129;28;20068;-64
2023/05/16 08:01:58;;;;;;;8.05;2.35;;;;;;;;;;5008382;28;20026;-64
2023/05/16 08:04:24;;;;;;;7.65;2.00;;;;;;;;;;5013648;28;20034;-64
2023/05/16 08:06:50;;;;;;;11.40;2.08;;;;;;;;;;5013589;28;20022;-63
2023/05/16 08:09:18;;;;;;;11.38;2.92;;;;;;;;;;5013397;28;20364;-64
2023/05/16 08:11:45;;;;;;;4.65;2.08;;;;;;;;;;5011979;28;20029;-64
2023/05/16 08:14:11;;;;;;;12.40;2.67;;;;;;;;;;5013368;28;20040;-64
2023/05/16 08:16:37;;;;;;;6.70;2.60;;;;;;;;;;5014042;28;20049;-64
2023/05/16 08:19:03;;;;;;;11.95;3.00;;;;;;;;;;5012421;28;20223;-63
2023/05/16 08:21:30;;;;;;;15.23;3.22;;;;;;;;;;5012707;28;20038;-64
2023/05/16 08:23:56;;;;;;;8.88;2.55;;;;;;;;;;5012848;28;20041;-64
2023/05/16 08:26:22;;;;;;;8.98;2.92;;;;;;;;;;5012935;28;20570;-64
2023/05/16 08:28:48;;;;;;;9.90;2.85;;;;;;;;;;5013242;28;20461;-63
2023/05/16 08:31:14;;;;;;;6.82;2.53;;;;;;;;;;5012776;28;20113;-64
2023/05/16 08:33:41;;;;;;;10.23;2.38;;;;;;;;;;5012153;28;20483;-65
2023/05/16 08:36:07;;;;;;;8.05;2.25;;;;;;;;;;5012338;28;20441;-65
2023/05/16 08:38:33;;;;;;;7.82;2.45;;;;;;;;;;5013248;28;20033;-64
2023/05/16 08:40:59;;;;;;;9.13;2.30;;;;;;;;;;5013087;28;20053;-63
2023/05/16 08:43:25;;;;;;;6.72;2.25;;;;;;;;;;5012976;28;20471;-64
2023/05/16 08:45:51;;;;;;;8.40;2.78;;;;;;;;;;5012946;28;20026;-64
2023/05/16 08:48:18;;;;;;;8.60;2.75;;;;;;;;;;5012764;28;20120;-64
2023/05/16 08:50:44;;;;;;;7.20;2.33;;;;;;;;;;5012861;28;20029;-64
2023/05/16 08:53:12;;;;;;;9.40;3.30;;;;;;;;;;5011932;28;20025;-64
2023/05/16 08:55:39;;;;;;;10.70;2.70;;;;;;;;;;5012974;28;20072;-64
2023/05/16 08:58:05;;;;;;;9.88;2.58;;;;;;;;;;5012659;28;20030;-64
2023/05/16 09:00:31;;;;;;;7.78;2.40;;;;;;;;;;5012673;28;20029;-64
2023/05/16 09:02:57;;;;;;;10.82;2.60;;;;;;;;;;5012490;28;20033;-64
2023/05/16 09:05:23;;;;;;;5.55;2.22;;;;;;;;;;5012548;28;20490;-64
2023/05/16 09:07:49;;;;;;;8.10;2.55;;;;;;;;;;5012515;28;20018;-63
2023/05/16 09:10:15;;;;;;;12.57;2.92;;;;;;;;;;5011599;28;20029;-64
2023/05/16 09:12:42;;;;;;;8.50;2.35;;;;;;;;;;5012840;28;20030;-63
2023/05/16 09:15:10;;;;;;;9.52;2.15;;;;;;;;;;5012376;28;20030;-63
2023/05/16 09:17:39;;;;;;;7.75;2.20;;;;;;;;;;5012410;28;20097;-65
2023/05/16 09:20:11;;;;;;;9.95;2.50;;;;;;;;;;5012059;28;20386;-64
2023/05/16 09:22:38;;;;;;;10.13;2.35;;;;;;;;;;5011658;28;20026;-63
2023/05/16 09:25:04;;;;;;;8.98;2.25;;;;;;;;;;5010699;28;20046;-64
2023/05/16 09:27:31;;;;;;;8.07;1.88;;;;;;;;;;5011188;28;20049;-65
2023/05/16 09:29:57;;;;;;;6.50;1.95;;;;;;;;;;5012135;28;20064;-64
2023/05/16 09:32:24;;;;;;;6.93;1.70;;;;;;;;;;5012040;28;20076;-64
2023/05/16 09:34:52;;;;;;;7.72;1.88;;;;;;;;;;5011762;28;20474;-63
2023/05/16 09:37:18;;;;;;;4.45;1.40;;;;;;;;;;5011253;28;20026;-65
2023/05/16 09:39:51;;;;;;;9.35;1.60;;;;;;;;;;5011971;28;20022;-63
2023/05/16 09:42:18;;;;;;;6.53;1.30;;;;;;;;;;5011808;28;20022;-63
2023/05/16 09:44:55;;;;;;;6.50;1.60;;;;;;;;;;5011793;28;20582;-64
2023/05/16 09:47:22;;;;;;;5.47;1.50;;;;;;;;;;5012071;28;20164;-62
2023/05/16 09:49:52;;;;;;;4.45;1.48;;;;;;;;;;5011908;28;20026;-63
2023/05/16 09:52:18;;;;;;;6.22;1.40;;;;;;;;;;5010773;28;20052;-64
2023/05/16 09:54:48;;;;;;;5.70;1.50;;;;;;;;;;5011621;28;20037;-64
2023/05/16 09:57:18;;;;;;;9.32;2.05;;;;;;;;;;5011507;28;20026;-63
2023/05/16 09:59:45;;;;;;;8.65;1.80;;;;;;;;;;5011876;28;20152;-63
2023/05/16 10:02:12;;;;;;;6.80;1.52;;;;;;;;;;5010665;28;20022;-64
2023/05/16 10:04:38;;;;;;;8.32;1.70;;;;;;;;;;5011401;28;20059;-63
2023/05/16 10:07:05;;;;;;;7.47;1.75;;;;;;;;;;5011279;28;20460;-64
2023/05/16 10:09:32;;;;;;;5.13;1.50;;;;;;;;;;5011613;28;20018;-63
2023/05/16 10:12:02;;;;;;;2.88;1.15;;;;;;;;;;5010484;28;20022;-63
2023/05/16 10:14:30;;;;;;;6.10;0.82;;;;;;;;;;5011649;28;20304;-63
2023/05/16 10:16:57;;;;;;;2.03;0.98;;;;;;;;;;5010560;28;20030;-64
2023/05/16 10:19:25;;;;;;;2.80;0.90;;;;;;;;;;5011355;28;20045;-64
2023/05/16 10:21:53;;;;;;;7.95;1.33;;;;;;;;;;5011317;28;20084;-64
2023/05/16 10:24:25;;;;;;;6.53;1.15;;;;;;;;;;5011045;28;20446;-64
2023/05/16 10:26:52;;;;;;;;;;;;;;;;;;5011601;28;20030;-64
2023/05/16 10:29:19;;;;;;;3.58;1.00;;;;;;;;;;5011488;28;19979;-64
2023/05/16 10:31:46;;;;;;;3.63;0.85;;;;;;;;;;5011288;28;20443;-64
2023/05/16 10:34:12;;;;;;;5.20;0.93;;;;;;;;;;5012046;28;20053;-64
2023/05/16 10:36:38;;;;;;;5.35;0.98;;;;;;;;;;5015295;28;20042;-63
2023/05/16 10:39:04;;;;;;;6.22;1.00;;;;;;;;;;5015188;28;20030;-64
2023/05/16 10:41:31;;;;;;;6.65;1.02;;;;;;;;;;5015015;28;20379;-64
2023/05/16 10:43:57;;;;;;;8.05;1.67;;;;;;;;;;5015243;28;20023;-64
2023/05/16 10:46:24;;;;;;;8.27;1.08;;;;;;;;;;5015238;28;20025;-64
2023/05/16 10:48:50;;;;;;;4.55;1.20;;;;;;;;;;5015091;28;20090;-64
2023/05/16 10:51:36;;;;;;;4.75;1.10;;;;;;;;;;5015084;28;20045;-63
2023/05/16 10:54:08;;;;;;;1.98;0.95;;;;;;;;;;5013817;28;20202;-64
2023/05/16 10:56:34;;;;;;;4.97;1.30;;;;;;;;;;5014835;28;20061;-65
2023/05/16 10:59:00;;;;;;;6.82;1.23;;;;;;;;;;5014755;28;20260;-65
2023/05/16 11:01:28;;;;;;;6.60;1.10;;;;;;;;;;5014967;28;20061;-64
2023/05/16 11:04:03;;;;;;;3.80;1.15;;;;;;;;;;5014733;28;20072;-65
2023/05/16 11:06:31;;;;;;;5.18;1.27;;;;;;;;;;5014714;28;20699;-64
2023/05/16 11:09:18;;;;;;;5.22;1.10;;;;;;;;;;5013884;28;20038;-65
2023/05/16 11:12:03;;;;;;;4.22;0.98;;;;;;;;;;5014722;28;20029;-64
2023/05/16 11:14:36;;;;;;;8.63;1.42;;;;;;;;;;5014448;28;20058;-65
2023/05/16 11:17:12;;;;;;;4.53;1.17;;;;;;;;;;5014722;28;20033;-64
2023/05/16 11:19:41;;;;;;;5.40;1.58;;;;;;;;;;5014481;28;20483;-64
2023/05/16 11:22:22;;;;;;;2.83;1.00;;;;;;;;;;5014330;28;20029;-63
2023/05/16 11:24:48;;;;;;;5.80;1.07;;;;;;;;;;5011717;28;20406;-64
2023/05/16 11:27:20;;;;;;;6.60;1.38;;;;;;;;;;5014408;28;20236;-64
2023/05/16 11:29:46;;;;;;;2.75;0.98;;;;;;;;;;5014346;28;20029;-64
2023/05/16 11:32:12;;;;;;;2.80;0.90;;;;;;;;;;5014447;28;20083;-64
2023/05/16 11:34:38;;;;;;;3.75;0.88;;;;;;;;;;5014098;28;20030;-64
2023/05/16 11:37:05;;;;;;;5.05;0.90;;;;;;;;;;5014228;28;20084;-65
2023/05/16 11:39:33;;;;;;;2.60;0.88;;;;;;;;;;5014040;28;20101;-65
2023/05/16 11:41:59;;;;;;;4.20;1.15;;;;;;;;;;5013280;28;20030;-64
2023/05/16 11:44:25;;;;;;;5.63;1.25;;;;;;;;;;5014049;28;20022;-65
2023/05/16 11:46:51;;;;;;;5.88;1.20;;;;;;;;;;5013459;28;20029;-65
2023/05/16 11:49:17;;;;;;;2.25;1.15;;;;;;;;;;5014036;28;20026;-65
2023/05/16 11:51:43;;;;;;;4.72;1.10;;;;;;;;;;5013873;28;20119;-63
2023/05/16 11:54:10;;;;;;;4.78;1.17;;;;;;;;;;5014134;28;20018;-64
2023/05/16 11:56:36;;;;;;;4.53;1.20;;;;;;;;;;5012841;28;20038;-63
2023/05/16 11:59:02;;;;;;;3.88;0.95;;;;;;;;;;5013043;28;20448;-63
2023/05/16 12:01:33;;;;;;;5.90;0.90;;;;;;;;;;5013795;28;20097;-63
2023/05/16 12:03:59;;;;;;;7.38;1.10;;;;;;;;;;5013788;28;20430;-63
2023/05/16 12:06:25;;;;;;;4.50;0.77;;;;;;;;;;5013632;28;20030;-64
2023/05/16 12:08:52;;;;;;;1.60;0.77;;;;;;;;;;5014015;28;20477;-64
2023/05/16 12:11:19;;;;;;;2.72;0.68;;;;;;;;;;5012942;28;20085;-64
2023/05/16 12:13:45;;;;;;;7.72;0.98;;;;;;;;;;5013513;28;20034;-65
2023/05/16 12:16:12;;;;;;;4.18;0.95;;;;;;;;;;5013566;28;20044;-65
2023/05/16 12:18:39;;;;;;;3.53;0.80;;;;;;;;;;5013377;28;20117;-62
2023/05/16 12:21:05;;;;;;;3.47;1.05;;;;;;;;;;5013342;28;20467;-64
2023/05/16 12:23:33;;;;;;;2.53;0.90;;;;;;;;;;5012963;28;20022;-64
2023/05/16 12:26:06;;;;;;;4.15;1.00;;;;;;;;;;5013385;28;20456;-64
2023/05/16 12:28:38;;;;;;;3.65;0.90;;;;;;;;;;5012285;28;20474;-63
2023/05/16 12:31:04;;;;;;;3.58;0.60;;;;;;;;;;5013138;28;20096;-65
2023/05/16 12:33:30;;;;;;;4.00;1.00;;;;;;;;;;5013169;28;20022;-64
2023/05/16 12:35:56;;;;;;;6.82;1.35;;;;;;;;;;5013010;28;20041;-66
2023/05/16 12:38:25;;;;;;;2.33;0.90;;;;;;;;;;5013014;28;20028;-64
2023/05/16 12:40:57;;;;;;;4.25;0.80;;;;;;;;;;5013010;28;20478;-63
2023/05/16 12:43:23;;;;;;;5.45;1.38;;;;;;;;;;5012968;28;20081;-65
2023/05/16 12:45:52;;;;;;;4.90;1.00;;;;;;;;;;5011967;28;20026;-64
2023/05/16 12:48:18;;;;;;;3.78;1.20;;;;;;;;;;5012768;28;20022;-64
2023/05/16 12:50:45;;;;;;;7.53;1.20;;;;;;;;;;5012742;28;20120;-64
2023/05/16 12:53:16;;;;;;;5.93;1.35;;;;;;;;;;5012773;28;20022;-63
2023/05/16 12:55:42;;;;;;;5.90;1.30;;;;;;;;;;5011292;28;20455;-64
2023/05/16 12:58:09;;;;;;;5.15;0.95;;;;;;;;;;5011907;28;20109;-63
2023/05/16 13:00:36;;;;;;;5.28;1.13;;;;;;;;;;5012568;28;20030;-63
2023/05/16 13:03:02;;;;;;;2.40;0.88;;;;;;;;;;5011560;28;20522;-63
2023/05/16 13:05:28;;;;;;;3.88;0.82;;;;;;;;;;5011384;28;20041;-63
2023/05/16 13:07:54;;;;;;;4.18;1.40;;;;;;;;;;5012490;28;20104;-63
2023/05/16 13:10:20;;;;;;;4.78;1.10;;;;;;;;;;5012550;28;20026;-63
2023/05/16 13:12:46;;;;;;;4.70;0.95;;;;;;;;;;5012641;28;20025;-64
2023/05/16 13:15:13;;;;;;;3.10;0.85;;;;;;;;;;5012219;28;20034;-63
2023/05/16 13:17:39;;;;;;;3.42;1.27;;;;;;;;;;5011698;28;20498;-64
2023/05/16 13:20:12;;;;;;;5.22;0.98;;;;;;;;;;5012476;28;20041;-62
2023/05/16 13:22:42;;;;;;;4.13;0.93;;;;;;;;;;5012236;28;20092;-64
2023/05/16 13:25:09;;;;;;;3.45;0.90;;;;;;;;;;5012011;28;20129;-64
2023/05/16 13:27:35;;;;;;;3.10;0.90;;;;;;;;;;5012217;28;20022;-64
2023/05/16 13:30:02;;;;;;;2.25;0.95;;;;;;;;;;5012110;28;20026;-64
2023/05/16 13:32:28;;;;;;;4.78;0.90;;;;;;;;;;5012046;28;20022;-64
2023/05/16 13:34:54;;;;;;;4.15;1.40;;;;;;;;;;5010761;28;20041;-65
2023/05/16 13:37:23;;;;;;;7.85;1.80;;;;;;;;;;5012231;28;20030;-64
2023/05/16 13:39:49;;;;;;;8.48;1.73;;;;;;;;;;5011921;28;20479;-64
2023/05/16 13:42:15;;;;;;;5.15;1.42;;;;;;;;;;5010977;28;20092;-63
2023/05/16 13:44:42;;;;;;;12.05;1.63;;;;;;;;;;5011772;28;20399;-65
2023/05/16 13:47:08;;;;;;;5.53;1.00;;;;;;;;;;5012000;28;20026;-64
2023/05/16 13:49:34;;;;;;;3.80;0.98;;;;;;;;;;5011719;28;20053;-63
2023/05/16 13:52:00;;;;;;;5.88;1.25;;;;;;;;;;5010576;28;20029;-62
2023/05/16 13:54:26;;;;;;;4.57;1.05;;;;;;;;;;5011639;28;20034;-64
2023/05/16 13:56:53;;;;;;;7.13;1.48;;;;;;;;;;5010721;28;20108;-64
2023/05/16 13:59:19;;;;;;;6.03;1.10;;;;;;;;;;5011810;28;20026;-64
2023/05/16 14:01:45;;;;;;;3.17;0.90;;;;;;;;;;5010528;28;20464;-65
2023/05/16 14:04:11;;;;;;;3.90;1.15;;;;;;;;;;5010351;28;20105;-65
2023/05/16 14:06:37;;;;;;;6.90;1.45;;;;;;;;;;5011566;28;20026;-64
2023/05/16 14:09:03;;;;;;;7.15;1.55;;;;;;;;;;5011234;28;20033;-64
2023/05/16 14:11:29;;;;;;;3.72;1.25;;;;;;;;;;5011459;28;20026;-64
2023/05/16 14:13:56;;;;;;;6.82;1.27;;;;;;;;;;5011633;28;20029;-62
2023/05/16 14:16:22;;;;;;;5.45;1.20;;;;;;;;;;5010441;28;20049;-64
2023/05/16 14:18:48;;;;;;;5.65;0.90;;;;;;;;;;5010464;28;20030;-63
2023/05/16 14:21:14;;;;;;;5.22;1.25;;;;;;;;;;5011354;28;20037;-63
2023/05/16 14:23:40;;;;;;;4.75;0.80;;;;;;;;;;5010858;28;20073;-64
2023/05/16 14:26:06;;;;;;;6.82;1.30;;;;;;;;;;5011407;28;20037;-64
2023/05/16 14:28:32;;;;;;;3.03;0.93;;;;;;;;;;5011269;28;20022;-64
2023/05/16 14:30:59;;;;;;;3.03;0.95;;;;;;;;;;5011454;28;20033;-64
2023/05/16 14:33:25;;;;;;;5.70;0.90;;;;;;;;;;5011071;28;20030;-64
2023/05/16 14:35:51;;;;;;;4.85;1.30;;;;;;;;;;5010384;28;20038;-64
2023/05/16 14:38:18;;;;;;;2.85;1.10;;;;;;;;;;5011168;28;20471;-64
2023/05/16 14:40:44;;;;;;;4.63;1.05;;;;;;;;;;5011107;28;20545;-65
2023/05/16 14:43:10;;;;;;;3.35;1.08;;;;;;;;;;5011124;28;20045;-64